sensor_id;sensor_type;location;lat;lon;timestamp;temperature;humidity
3055;DHT22;1537;52.018;8.542;2023-03-01T00:00:53;-0.40;90.30
3055;DHT22;1537;52.018;8.542;2023-03-01T00:04:17;-0.40;90.20
3055;DHT22;1537;52.018;8.542;2023-03-01T00:07:41;-0.40;90.20
3055;DHT22;1537;52.018;8.542;2023-03-01T00:11:09;-0.50;90.20
3055;DHT22;1537;52.018;8.542;2023-03-01T00:14:36;-0.50;90.30
3055;DHT22;1537;52.018;8.542;2023-03-01T00:18:00;-0.50;90.20
3055;DHT22;1537;52.018;8.542;2023-03-01T00:21:32;-0.60;90.20
3055;DHT22;1537;52.018;8.542;2023-03-01T00:24:57;-0.60;90.30
3055;DHT22;1537;52.018;8.542;2023-03-01T00:28:23;-0.60;90.40
3055;DHT22;1537;52.018;8.542;2023-03-01T00:31:47;-0.60;90.40
3055;DHT22;1537;52.018;8.542;2023-03-01T00:35:11;-0.70;90.40
3055;DHT22;1537;52.018;8.542;2023-03-01T00:38:36;-0.70;90.50
3055;DHT22;1537;52.018;8.542;2023-03-01T00:42:00;-0.70;90.50
3055;DHT22;1537;52.018;8.542;2023-03-01T00:45:26;-0.80;90.60
3055;DHT22;1537;52.018;8.542;2023-03-01T00:48:50;-0.80;90.90
3055;DHT22;1537;52.018;8.542;2023-03-01T00:52:14;-1.00;91.20
3055;DHT22;1537;52.018;8.542;2023-03-01T00:55:38;-1.00;91.30
3055;DHT22;1537;52.018;8.542;2023-03-01T00:59:02;-1.00;91.40
3055;DHT22;1537;52.018;8.542;2023-03-01T01:02:31;-1.00;91.40
3055;DHT22;1537;52.018;8.542;2023-03-01T01:05:59;-1.00;91.50
3055;DHT22;1537;52.018;8.542;2023-03-01T01:09:33;-1.00;91.40
3055;DHT22;1537;52.018;8.542;2023-03-01T01:12:57;-1.00;91.30
3055;DHT22;1537;52.018;8.542;2023-03-01T01:16:23;-1.10;91.70
3055;DHT22;1537;52.018;8.542;2023-03-01T01:19:49;-1.10;91.50
3055;DHT22;1537;52.018;8.542;2023-03-01T01:23:12;-1.10;91.50
3055;DHT22;1537;52.018;8.542;2023-03-01T01:26:36;-1.20;91.60
3055;DHT22;1537;52.018;8.542;2023-03-01T01:30:00;-1.20;91.60
3055;DHT22;1537;52.018;8.542;2023-03-01T01:33:24;-1.30;91.60
3055;DHT22;1537;52.018;8.542;2023-03-01T01:36:51;-1.30;91.80
3055;DHT22;1537;52.018;8.542;2023-03-01T01:40:16;-1.30;92.00
3055;DHT22;1537;52.018;8.542;2023-03-01T01:43:42;-1.30;92.00
3055;DHT22;1537;52.018;8.542;2023-03-01T01:47:11;-1.40;92.00
3055;DHT22;1537;52.018;8.542;2023-03-01T01:50:40;-1.30;92.10
3055;DHT22;1537;52.018;8.542;2023-03-01T01:54:10;-1.40;92.10
3055;DHT22;1537;52.018;8.542;2023-03-01T01:57:38;-1.30;92.20
3055;DHT22;1537;52.018;8.542;2023-03-01T02:01:03;-1.30;92.20
3055;DHT22;1537;52.018;8.542;2023-03-01T02:04:28;-1.40;92.20
3055;DHT22;1537;52.018;8.542;2023-03-01T02:07:52;-1.40;92.20
3055;DHT22;1537;52.018;8.542;2023-03-01T02:11:19;-1.40;92.20
3055;DHT22;1537;52.018;8.542;2023-03-01T02:14:45;-1.40;92.30
3055;DHT22;1537;52.018;8.542;2023-03-01T02:18:11;-1.50;92.30
3055;DHT22;1537;52.018;8.542;2023-03-01T02:21:44;-1.50;92.40
3055;DHT22;1537;52.018;8.542;2023-03-01T02:25:32;-1.50;92.40
3055;DHT22;1537;52.018;8.542;2023-03-01T02:29:01;-1.50;92.40
3055;DHT22;1537;52.018;8.542;2023-03-01T02:32:26;-1.50;92.40
3055;DHT22;1537;52.018;8.542;2023-03-01T02:35:51;-1.60;92.40
3055;DHT22;1537;52.018;8.542;2023-03-01T02:39:18;-1.60;92.40
3055;DHT22;1537;52.018;8.542;2023-03-01T02:42:49;-1.60;92.50
3055;DHT22;1537;52.018;8.542;2023-03-01T02:46:19;-1.60;92.50
3055;DHT22;1537;52.018;8.542;2023-03-01T02:49:43;-1.70;92.60
3055;DHT22;1537;52.018;8.542;2023-03-01T02:53:11;-1.70;92.50
3055;DHT22;1537;52.018;8.542;2023-03-01T02:56:36;-1.70;92.60
3055;DHT22;1537;52.018;8.542;2023-03-01T03:00:03;-1.70;92.70
3055;DHT22;1537;52.018;8.542;2023-03-01T03:03:33;-1.80;92.70
3055;DHT22;1537;52.018;8.542;2023-03-01T03:06:57;-1.80;92.70
3055;DHT22;1537;52.018;8.542;2023-03-01T03:10:23;-1.80;92.70
3055;DHT22;1537;52.018;8.542;2023-03-01T03:13:47;-1.80;92.80
3055;DHT22;1537;52.018;8.542;2023-03-01T03:17:12;-1.80;92.80
3055;DHT22;1537;52.018;8.542;2023-03-01T03:20:39;-1.80;92.80
3055;DHT22;1537;52.018;8.542;2023-03-01T03:24:04;-1.80;92.90
3055;DHT22;1537;52.018;8.542;2023-03-01T03:27:28;-1.80;92.90
3055;DHT22;1537;52.018;8.542;2023-03-01T03:30:54;-1.80;92.80
3055;DHT22;1537;52.018;8.542;2023-03-01T03:34:18;-1.80;92.80
3055;DHT22;1537;52.018;8.542;2023-03-01T03:37:44;-1.80;92.90
3055;DHT22;1537;52.018;8.542;2023-03-01T03:41:36;-1.90;92.90
3055;DHT22;1537;52.018;8.542;2023-03-01T03:45:00;-1.90;93.10
3055;DHT22;1537;52.018;8.542;2023-03-01T03:48:25;-1.90;93.10
3055;DHT22;1537;52.018;8.542;2023-03-01T03:51:52;-2.00;93.10
3055;DHT22;1537;52.018;8.542;2023-03-01T03:55:18;-2.00;93.20
3055;DHT22;1537;52.018;8.542;2023-03-01T03:58:42;-2.00;93.30
3055;DHT22;1537;52.018;8.542;2023-03-01T04:02:06;-2.00;93.20
3055;DHT22;1537;52.018;8.542;2023-03-01T04:05:33;-2.00;93.10
3055;DHT22;1537;52.018;8.542;2023-03-01T04:09:00;-2.10;93.10
3055;DHT22;1537;52.018;8.542;2023-03-01T04:12:27;-2.20;93.20
3055;DHT22;1537;52.018;8.542;2023-03-01T04:15:50;-2.20;93.40
3055;DHT22;1537;52.018;8.542;2023-03-01T04:19:15;-2.20;93.50
3055;DHT22;1537;52.018;8.542;2023-03-01T04:22:40;-2.30;93.50
3055;DHT22;1537;52.018;8.542;2023-03-01T04:26:04;-2.30;93.70
3055;DHT22;1537;52.018;8.542;2023-03-01T04:29:29;-2.30;93.70
3055;DHT22;1537;52.018;8.542;2023-03-01T04:32:53;-2.30;93.80
3055;DHT22;1537;52.018;8.542;2023-03-01T04:36:19;-2.30;93.90
3055;DHT22;1537;52.018;8.542;2023-03-01T04:39:43;-2.30;93.90
3055;DHT22;1537;52.018;8.542;2023-03-01T04:43:09;-2.20;93.90
3055;DHT22;1537;52.018;8.542;2023-03-01T04:46:35;-2.20;93.80
3055;DHT22;1537;52.018;8.542;2023-03-01T04:49:59;-2.30;93.70
3055;DHT22;1537;52.018;8.542;2023-03-01T04:53:23;-2.20;93.70
3055;DHT22;1537;52.018;8.542;2023-03-01T04:56:47;-2.30;93.70
3055;DHT22;1537;52.018;8.542;2023-03-01T05:00:14;-2.30;93.70
3055;DHT22;1537;52.018;8.542;2023-03-01T05:03:52;-2.30;93.80
3055;DHT22;1537;52.018;8.542;2023-03-01T05:07:17;-2.30;93.80
3055;DHT22;1537;52.018;8.542;2023-03-01T05:10:42;-2.30;93.80
3055;DHT22;1537;52.018;8.542;2023-03-01T05:14:09;-2.30;93.90
3055;DHT22;1537;52.018;8.542;2023-03-01T05:17:33;-2.30;93.90
3055;DHT22;1537;52.018;8.542;2023-03-01T05:21:04;-2.30;93.90
3055;DHT22;1537;52.018;8.542;2023-03-01T05:24:29;-2.30;93.80
3055;DHT22;1537;52.018;8.542;2023-03-01T05:27:54;-2.40;93.80
3055;DHT22;1537;52.018;8.542;2023-03-01T05:31:19;-2.40;93.90
3055;DHT22;1537;52.018;8.542;2023-03-01T05:34:43;-2.30;93.90
3055;DHT22;1537;52.018;8.542;2023-03-01T05:38:10;-2.40;93.90
3055;DHT22;1537;52.018;8.542;2023-03-01T05:41:36;-2.40;93.90
3055;DHT22;1537;52.018;8.542;2023-03-01T05:45:00;-2.40;93.90
3055;DHT22;1537;52.018;8.542;2023-03-01T05:48:24;-2.50;93.90
3055;DHT22;1537;52.018;8.542;2023-03-01T05:51:49;-2.50;93.80
3055;DHT22;1537;52.018;8.542;2023-03-01T05:55:16;-2.50;93.90
3055;DHT22;1537;52.018;8.542;2023-03-01T05:58:40;-2.60;93.90
3055;DHT22;1537;52.018;8.542;2023-03-01T06:02:03;-2.60;94.00
3055;DHT22;1537;52.018;8.542;2023-03-01T06:05:29;-2.60;94.00
3055;DHT22;1537;52.018;8.542;2023-03-01T06:08:54;-2.60;94.00
3055;DHT22;1537;52.018;8.542;2023-03-01T06:12:19;-2.60;94.10
3055;DHT22;1537;52.018;8.542;2023-03-01T06:15:43;-2.60;94.10
3055;DHT22;1537;52.018;8.542;2023-03-01T06:19:07;-2.60;94.30
3055;DHT22;1537;52.018;8.542;2023-03-01T06:22:31;-2.60;94.30
3055;DHT22;1537;52.018;8.542;2023-03-01T06:25:54;-2.60;94.30
3055;DHT22;1537;52.018;8.542;2023-03-01T06:29:20;-2.60;94.30
3055;DHT22;1537;52.018;8.542;2023-03-01T06:32:44;-2.50;94.30
3055;DHT22;1537;52.018;8.542;2023-03-01T06:36:09;-2.50;94.30
3055;DHT22;1537;52.018;8.542;2023-03-01T06:39:34;-2.50;94.20
3055;DHT22;1537;52.018;8.542;2023-03-01T06:42:58;-2.50;94.20
3055;DHT22;1537;52.018;8.542;2023-03-01T06:46:26;-2.40;94.30
3055;DHT22;1537;52.018;8.542;2023-03-01T06:49:51;-2.40;94.30
3055;DHT22;1537;52.018;8.542;2023-03-01T06:53:15;-2.30;94.30
3055;DHT22;1537;52.018;8.542;2023-03-01T06:56:40;-2.20;94.30
3055;DHT22;1537;52.018;8.542;2023-03-01T07:00:04;-2.10;94.40
3055;DHT22;1537;52.018;8.542;2023-03-01T07:03:31;-2.00;94.40
3055;DHT22;1537;52.018;8.542;2023-03-01T07:06:55;-1.90;94.30
3055;DHT22;1537;52.018;8.542;2023-03-01T07:10:19;-1.90;94.10
3055;DHT22;1537;52.018;8.542;2023-03-01T07:13:43;-1.80;94.00
3055;DHT22;1537;52.018;8.542;2023-03-01T07:17:07;-1.70;93.90
3055;DHT22;1537;52.018;8.542;2023-03-01T07:20:32;-1.60;93.70
3055;DHT22;1537;52.018;8.542;2023-03-01T07:23:57;-1.70;93.40
3055;DHT22;1537;52.018;8.542;2023-03-01T07:27:21;-1.60;93.70
3055;DHT22;1537;52.018;8.542;2023-03-01T07:30:45;-1.00;95.10
3055;DHT22;1537;52.018;8.542;2023-03-01T07:34:09;0.90;97.70
3055;DHT22;1537;52.018;8.542;2023-03-01T07:37:37;2.90;93.70
3055;DHT22;1537;52.018;8.542;2023-03-01T07:41:02;4.50;87.00
3055;DHT22;1537;52.018;8.542;2023-03-01T07:44:29;5.60;75.30
3055;DHT22;1537;52.018;8.542;2023-03-01T07:47:53;7.00;66.60
3055;DHT22;1537;52.018;8.542;2023-03-01T07:51:18;8.00;58.10
3055;DHT22;1537;52.018;8.542;2023-03-01T07:54:48;8.70;54.10
3055;DHT22;1537;52.018;8.542;2023-03-01T07:58:12;9.00;53.00
3055;DHT22;1537;52.018;8.542;2023-03-01T08:01:36;9.40;48.60
3055;DHT22;1537;52.018;8.542;2023-03-01T08:05:00;9.50;49.50
3055;DHT22;1537;52.018;8.542;2023-03-01T08:08:25;10.20;47.50
3055;DHT22;1537;52.018;8.542;2023-03-01T08:11:52;11.10;44.30
3055;DHT22;1537;52.018;8.542;2023-03-01T08:15:17;11.10;43.10
3055;DHT22;1537;52.018;8.542;2023-03-01T08:18:41;10.50;42.90
3055;DHT22;1537;52.018;8.542;2023-03-01T08:22:05;9.90;46.10
3055;DHT22;1537;52.018;8.542;2023-03-01T08:25:29;10.40;44.50
3055;DHT22;1537;52.018;8.542;2023-03-01T08:28:54;10.60;43.60
3055;DHT22;1537;52.018;8.542;2023-03-01T08:32:18;10.80;43.80
3055;DHT22;1537;52.018;8.542;2023-03-01T08:35:42;11.40;41.50
3055;DHT22;1537;52.018;8.542;2023-03-01T08:39:06;12.60;40.90
3055;DHT22;1537;52.018;8.542;2023-03-01T08:42:30;13.90;38.80
3055;DHT22;1537;52.018;8.542;2023-03-01T08:45:55;14.10;36.60
3055;DHT22;1537;52.018;8.542;2023-03-01T08:49:19;14.50;36.10
3055;DHT22;1537;52.018;8.542;2023-03-01T08:52:43;15.10;34.80
3055;DHT22;1537;52.018;8.542;2023-03-01T08:56:08;15.30;33.60
3055;DHT22;1537;52.018;8.542;2023-03-01T08:59:32;14.40;34.40
3055;DHT22;1537;52.018;8.542;2023-03-01T09:03:00;14.50;34.80
3055;DHT22;1537;52.018;8.542;2023-03-01T09:06:24;15.20;33.80
3055;DHT22;1537;52.018;8.542;2023-03-01T09:09:48;15.20;32.70
3055;DHT22;1537;52.018;8.542;2023-03-01T09:13:11;15.00;33.60
3055;DHT22;1537;52.018;8.542;2023-03-01T09:16:35;14.90;33.30
3055;DHT22;1537;52.018;8.542;2023-03-01T09:20:00;14.50;33.40
3055;DHT22;1537;52.018;8.542;2023-03-01T09:23:27;14.50;33.80
3055;DHT22;1537;52.018;8.542;2023-03-01T09:26:53;14.60;33.70
3055;DHT22;1537;52.018;8.542;2023-03-01T09:30:17;13.60;34.00
3055;DHT22;1537;52.018;8.542;2023-03-01T09:33:41;13.20;35.30
3055;DHT22;1537;52.018;8.542;2023-03-01T09:37:06;13.70;34.40
3055;DHT22;1537;52.018;8.542;2023-03-01T09:40:30;14.10;33.70
3055;DHT22;1537;52.018;8.542;2023-03-01T09:43:56;14.40;34.60
3055;DHT22;1537;52.018;8.542;2023-03-01T09:47:23;14.20;33.20
3055;DHT22;1537;52.018;8.542;2023-03-01T09:50:47;13.30;33.10
3055;DHT22;1537;52.018;8.542;2023-03-01T09:54:12;13.90;33.70
3055;DHT22;1537;52.018;8.542;2023-03-01T09:57:41;14.10;33.20
3055;DHT22;1537;52.018;8.542;2023-03-01T10:01:27;13.50;33.50
3055;DHT22;1537;52.018;8.542;2023-03-01T10:05:00;12.60;34.80
3055;DHT22;1537;52.018;8.542;2023-03-01T10:08:31;12.30;34.60
3055;DHT22;1537;52.018;8.542;2023-03-01T10:12:01;12.50;35.00
3055;DHT22;1537;52.018;8.542;2023-03-01T10:15:33;11.50;35.70
3055;DHT22;1537;52.018;8.542;2023-03-01T10:19:00;11.70;36.10
3055;DHT22;1537;52.018;8.542;2023-03-01T10:22:28;12.70;35.20
3055;DHT22;1537;52.018;8.542;2023-03-01T10:26:03;11.90;34.90
3055;DHT22;1537;52.018;8.542;2023-03-01T10:29:37;11.50;36.80
3055;DHT22;1537;52.018;8.542;2023-03-01T10:33:01;10.90;37.30
3055;DHT22;1537;52.018;8.542;2023-03-01T10:36:26;10.70;37.20
3055;DHT22;1537;52.018;8.542;2023-03-01T10:39:58;10.90;37.30
3055;DHT22;1537;52.018;8.542;2023-03-01T10:43:24;10.80;38.00
3055;DHT22;1537;52.018;8.542;2023-03-01T10:46:59;10.10;38.30
3055;DHT22;1537;52.018;8.542;2023-03-01T10:50:23;10.10;39.10
3055;DHT22;1537;52.018;8.542;2023-03-01T10:53:49;10.10;38.10
3055;DHT22;1537;52.018;8.542;2023-03-01T10:57:29;9.30;40.30
3055;DHT22;1537;52.018;8.542;2023-03-01T11:00:54;8.70;41.80
3055;DHT22;1537;52.018;8.542;2023-03-01T11:04:20;8.00;41.80
3055;DHT22;1537;52.018;8.542;2023-03-01T11:07:47;7.50;44.40
3055;DHT22;1537;52.018;8.542;2023-03-01T11:11:22;8.60;43.00
3055;DHT22;1537;52.018;8.542;2023-03-01T11:14:47;8.60;42.80
3055;DHT22;1537;52.018;8.542;2023-03-01T11:18:19;8.20;43.30
3055;DHT22;1537;52.018;8.542;2023-03-01T11:21:58;8.10;43.80
3055;DHT22;1537;52.018;8.542;2023-03-01T11:25:26;7.50;44.80
3055;DHT22;1537;52.018;8.542;2023-03-01T11:28:53;7.00;46.50
3055;DHT22;1537;52.018;8.542;2023-03-01T11:32:20;6.40;48.30
3055;DHT22;1537;52.018;8.542;2023-03-01T11:35:53;6.50;48.90
3055;DHT22;1537;52.018;8.542;2023-03-01T11:39:28;6.30;49.50
3055;DHT22;1537;52.018;8.542;2023-03-01T11:43:01;6.00;49.40
3055;DHT22;1537;52.018;8.542;2023-03-01T11:46:44;6.00;49.20
3055;DHT22;1537;52.018;8.542;2023-03-01T11:50:26;5.80;48.20
3055;DHT22;1537;52.018;8.542;2023-03-01T11:54:10;5.70;48.00
3055;DHT22;1537;52.018;8.542;2023-03-01T11:57:55;5.60;47.90
3055;DHT22;1537;52.018;8.542;2023-03-01T12:01:35;5.50;48.00
3055;DHT22;1537;52.018;8.542;2023-03-01T12:09:17;5.80;48.00
3055;DHT22;1537;52.018;8.542;2023-03-01T12:17:03;5.50;46.80
3055;DHT22;1537;52.018;8.542;2023-03-01T12:20:35;5.60;47.40
3055;DHT22;1537;52.018;8.542;2023-03-01T12:24:28;5.60;48.20
3055;DHT22;1537;52.018;8.542;2023-03-01T12:28:26;5.70;49.00
3055;DHT22;1537;52.018;8.542;2023-03-01T12:32:15;5.70;49.40
3055;DHT22;1537;52.018;8.542;2023-03-01T12:39:45;5.50;49.60
3055;DHT22;1537;52.018;8.542;2023-03-01T12:43:22;5.50;49.50
3055;DHT22;1537;52.018;8.542;2023-03-01T12:47:03;5.50;49.30
3055;DHT22;1537;52.018;8.542;2023-03-01T12:50:38;5.60;49.80
3055;DHT22;1537;52.018;8.542;2023-03-01T12:54:11;5.60;50.10
3055;DHT22;1537;52.018;8.542;2023-03-01T12:57:42;5.80;49.60
3055;DHT22;1537;52.018;8.542;2023-03-01T13:01:17;5.80;49.80
3055;DHT22;1537;52.018;8.542;2023-03-01T13:04:55;5.70;49.60
3055;DHT22;1537;52.018;8.542;2023-03-01T13:08:26;5.70;48.60
3055;DHT22;1537;52.018;8.542;2023-03-01T13:11:51;5.80;48.40
3055;DHT22;1537;52.018;8.542;2023-03-01T13:15:34;5.90;48.40
3055;DHT22;1537;52.018;8.542;2023-03-01T13:19:07;5.80;47.30
3055;DHT22;1537;52.018;8.542;2023-03-01T13:22:33;5.90;47.30
3055;DHT22;1537;52.018;8.542;2023-03-01T13:26:13;6.10;47.10
3055;DHT22;1537;52.018;8.542;2023-03-01T13:29:45;6.10;46.60
3055;DHT22;1537;52.018;8.542;2023-03-01T13:33:39;6.10;44.90
3055;DHT22;1537;52.018;8.542;2023-03-01T13:37:09;6.00;45.30
3055;DHT22;1537;52.018;8.542;2023-03-01T13:40:59;6.20;45.60
3055;DHT22;1537;52.018;8.542;2023-03-01T13:44:26;6.30;45.80
3055;DHT22;1537;52.018;8.542;2023-03-01T13:47:58;6.50;45.30
3055;DHT22;1537;52.018;8.542;2023-03-01T13:51:25;6.40;44.40
3055;DHT22;1537;52.018;8.542;2023-03-01T13:54:49;6.40;43.70
3055;DHT22;1537;52.018;8.542;2023-03-01T13:58:21;6.30;43.40
3055;DHT22;1537;52.018;8.542;2023-03-01T14:01:52;6.30;44.50
3055;DHT22;1537;52.018;8.542;2023-03-01T14:05:17;6.20;44.00
3055;DHT22;1537;52.018;8.542;2023-03-01T14:08:41;6.40;44.90
3055;DHT22;1537;52.018;8.542;2023-03-01T14:12:16;6.30;44.50
3055;DHT22;1537;52.018;8.542;2023-03-01T14:15:50;6.20;45.00
3055;DHT22;1537;52.018;8.542;2023-03-01T14:19:22;6.30;44.70
3055;DHT22;1537;52.018;8.542;2023-03-01T14:22:57;6.30;44.80
3055;DHT22;1537;52.018;8.542;2023-03-01T14:26:22;6.40;45.00
3055;DHT22;1537;52.018;8.542;2023-03-01T14:29:55;6.50;44.80
3055;DHT22;1537;52.018;8.542;2023-03-01T14:33:23;6.50;44.60
3055;DHT22;1537;52.018;8.542;2023-03-01T14:36:47;6.60;44.80
3055;DHT22;1537;52.018;8.542;2023-03-01T14:40:21;6.50;44.80
3055;DHT22;1537;52.018;8.542;2023-03-01T14:43:49;6.50;44.60
3055;DHT22;1537;52.018;8.542;2023-03-01T14:47:16;6.30;44.70
3055;DHT22;1537;52.018;8.542;2023-03-01T14:50:45;6.20;44.80
3055;DHT22;1537;52.018;8.542;2023-03-01T14:54:20;6.40;45.10
3055;DHT22;1537;52.018;8.542;2023-03-01T14:57:46;6.40;45.00
3055;DHT22;1537;52.018;8.542;2023-03-01T15:01:14;6.40;44.30
3055;DHT22;1537;52.018;8.542;2023-03-01T15:04:40;6.40;44.80
3055;DHT22;1537;52.018;8.542;2023-03-01T15:08:06;6.30;44.10
3055;DHT22;1537;52.018;8.542;2023-03-01T15:11:31;6.30;44.50
3055;DHT22;1537;52.018;8.542;2023-03-01T15:14:56;6.30;45.10
3055;DHT22;1537;52.018;8.542;2023-03-01T15:18:28;6.20;45.30
3055;DHT22;1537;52.018;8.542;2023-03-01T15:21:52;6.20;45.10
3055;DHT22;1537;52.018;8.542;2023-03-01T15:25:19;6.20;45.20
3055;DHT22;1537;52.018;8.542;2023-03-01T15:28:50;6.30;45.60
3055;DHT22;1537;52.018;8.542;2023-03-01T15:32:26;6.20;45.40
3055;DHT22;1537;52.018;8.542;2023-03-01T15:35:51;6.10;45.50
3055;DHT22;1537;52.018;8.542;2023-03-01T15:39:37;6.00;46.40
3055;DHT22;1537;52.018;8.542;2023-03-01T15:43:04;6.10;47.00
3055;DHT22;1537;52.018;8.542;2023-03-01T15:46:30;6.10;47.40
3055;DHT22;1537;52.018;8.542;2023-03-01T15:49:56;6.10;47.60
3055;DHT22;1537;52.018;8.542;2023-03-01T15:53:21;6.00;48.20
3055;DHT22;1537;52.018;8.542;2023-03-01T15:56:44;6.00;48.50
3055;DHT22;1537;52.018;8.542;2023-03-01T16:00:12;5.90;48.60
3055;DHT22;1537;52.018;8.542;2023-03-01T16:03:36;5.90;48.70
3055;DHT22;1537;52.018;8.542;2023-03-01T16:06:59;5.80;48.90
3055;DHT22;1537;52.018;8.542;2023-03-01T16:10:23;5.80;49.10
3055;DHT22;1537;52.018;8.542;2023-03-01T16:13:48;5.70;48.90
3055;DHT22;1537;52.018;8.542;2023-03-01T16:17:13;5.60;49.10
3055;DHT22;1537;52.018;8.542;2023-03-01T16:20:37;5.60;49.40
3055;DHT22;1537;52.018;8.542;2023-03-01T16:24:01;5.60;49.70
3055;DHT22;1537;52.018;8.542;2023-03-01T16:27:24;5.60;50.30
3055;DHT22;1537;52.018;8.542;2023-03-01T16:30:48;5.50;50.70
3055;DHT22;1537;52.018;8.542;2023-03-01T16:34:14;5.40;51.50
3055;DHT22;1537;52.018;8.542;2023-03-01T16:37:39;5.40;51.90
3055;DHT22;1537;52.018;8.542;2023-03-01T16:41:04;5.30;52.20
3055;DHT22;1537;52.018;8.542;2023-03-01T16:44:27;5.20;52.60
3055;DHT22;1537;52.018;8.542;2023-03-01T16:47:51;5.10;52.90
3055;DHT22;1537;52.018;8.542;2023-03-01T16:51:19;5.10;53.30
3055;DHT22;1537;52.018;8.542;2023-03-01T16:54:43;5.00;53.60
3055;DHT22;1537;52.018;8.542;2023-03-01T16:58:06;5.00;54.00
3055;DHT22;1537;52.018;8.542;2023-03-01T17:01:31;4.90;54.40
3055;DHT22;1537;52.018;8.542;2023-03-01T17:05:02;4.80;55.30
3055;DHT22;1537;52.018;8.542;2023-03-01T17:08:27;4.80;55.30
3055;DHT22;1537;52.018;8.542;2023-03-01T17:11:51;4.70;55.80
3055;DHT22;1537;52.018;8.542;2023-03-01T17:15:14;4.60;56.30
3055;DHT22;1537;52.018;8.542;2023-03-01T17:18:38;4.60;56.50
3055;DHT22;1537;52.018;8.542;2023-03-01T17:22:02;4.50;57.00
3055;DHT22;1537;52.018;8.542;2023-03-01T17:25:27;4.50;57.40
3055;DHT22;1537;52.018;8.542;2023-03-01T17:28:50;4.40;57.80
3055;DHT22;1537;52.018;8.542;2023-03-01T17:32:14;4.30;58.20
3055;DHT22;1537;52.018;8.542;2023-03-01T17:35:38;4.20;58.60
3055;DHT22;1537;52.018;8.542;2023-03-01T17:39:01;4.20;59.20
3055;DHT22;1537;52.018;8.542;2023-03-01T17:42:26;4.10;59.60
3055;DHT22;1537;52.018;8.542;2023-03-01T17:45:50;4.00;59.90
3055;DHT22;1537;52.018;8.542;2023-03-01T17:49:15;4.00;60.30
3055;DHT22;1537;52.018;8.542;2023-03-01T17:52:39;3.90;60.70
3055;DHT22;1537;52.018;8.542;2023-03-01T17:56:05;3.90;61.20
3055;DHT22;1537;52.018;8.542;2023-03-01T17:59:30;3.80;61.50
3055;DHT22;1537;52.018;8.542;2023-03-01T18:02:55;3.80;61.70
3055;DHT22;1537;52.018;8.542;2023-03-01T18:06:20;3.80;61.60
3055;DHT22;1537;52.018;8.542;2023-03-01T18:09:44;3.80;61.90
3055;DHT22;1537;52.018;8.542;2023-03-01T18:13:08;3.70;62.00
3055;DHT22;1537;52.018;8.542;2023-03-01T18:16:33;3.70;62.50
3055;DHT22;1537;52.018;8.542;2023-03-01T18:19:57;3.60;62.80
3055;DHT22;1537;52.018;8.542;2023-03-01T18:23:21;3.60;63.30
3055;DHT22;1537;52.018;8.542;2023-03-01T18:26:44;3.50;63.80
3055;DHT22;1537;52.018;8.542;2023-03-01T18:30:09;3.40;64.40
3055;DHT22;1537;52.018;8.542;2023-03-01T18:33:35;3.40;65.00
3055;DHT22;1537;52.018;8.542;2023-03-01T18:36:58;3.30;65.60
3055;DHT22;1537;52.018;8.542;2023-03-01T18:40:31;3.20;65.80
3055;DHT22;1537;52.018;8.542;2023-03-01T18:43:55;3.10;66.20
3055;DHT22;1537;52.018;8.542;2023-03-01T18:47:18;3.00;66.30
3055;DHT22;1537;52.018;8.542;2023-03-01T18:50:43;3.00;66.10
3055;DHT22;1537;52.018;8.542;2023-03-01T18:54:10;3.00;66.10
3055;DHT22;1537;52.018;8.542;2023-03-01T18:57:34;3.00;66.30
3055;DHT22;1537;52.018;8.542;2023-03-01T19:00:57;2.90;66.30
3055;DHT22;1537;52.018;8.542;2023-03-01T19:04:23;2.90;65.90
3055;DHT22;1537;52.018;8.542;2023-03-01T19:07:49;2.80;65.80
3055;DHT22;1537;52.018;8.542;2023-03-01T19:11:14;2.80;66.00
3055;DHT22;1537;52.018;8.542;2023-03-01T19:14:39;2.80;65.90
3055;DHT22;1537;52.018;8.542;2023-03-01T19:18:03;2.80;65.40
3055;DHT22;1537;52.018;8.542;2023-03-01T19:21:28;2.80;65.10
3055;DHT22;1537;52.018;8.542;2023-03-01T19:24:54;2.80;65.20
3055;DHT22;1537;52.018;8.542;2023-03-01T19:28:18;2.70;64.90
3055;DHT22;1537;52.018;8.542;2023-03-01T19:31:41;2.70;64.90
3055;DHT22;1537;52.018;8.542;2023-03-01T19:35:06;2.70;65.10
3055;DHT22;1537;52.018;8.542;2023-03-01T19:38:30;2.70;65.20
3055;DHT22;1537;52.018;8.542;2023-03-01T19:41:55;2.60;65.30
3055;DHT22;1537;52.018;8.542;2023-03-01T19:45:19;2.60;65.60
3055;DHT22;1537;52.018;8.542;2023-03-01T19:48:54;2.50;66.00
3055;DHT22;1537;52.018;8.542;2023-03-01T19:52:20;2.50;66.40
3055;DHT22;1537;52.018;8.542;2023-03-01T19:55:43;2.50;66.70
3055;DHT22;1537;52.018;8.542;2023-03-01T19:59:08;2.40;66.80
3055;DHT22;1537;52.018;8.542;2023-03-01T20:02:32;2.40;67.20
3055;DHT22;1537;52.018;8.542;2023-03-01T20:05:56;2.30;67.40
3055;DHT22;1537;52.018;8.542;2023-03-01T20:09:20;2.30;67.40
3055;DHT22;1537;52.018;8.542;2023-03-01T20:12:44;2.30;67.40
3055;DHT22;1537;52.018;8.542;2023-03-01T20:16:09;2.30;67.60
3055;DHT22;1537;52.018;8.542;2023-03-01T20:19:33;2.30;67.40
3055;DHT22;1537;52.018;8.542;2023-03-01T20:22:56;2.30;67.20
3055;DHT22;1537;52.018;8.542;2023-03-01T20:26:21;2.30;66.80
3055;DHT22;1537;52.018;8.542;2023-03-01T20:29:46;2.30;66.80
3055;DHT22;1537;52.018;8.542;2023-03-01T20:33:12;2.30;66.90
3055;DHT22;1537;52.018;8.542;2023-03-01T20:36:35;2.30;67.20
3055;DHT22;1537;52.018;8.542;2023-03-01T20:40:02;2.30;67.20
3055;DHT22;1537;52.018;8.542;2023-03-01T20:43:26;2.30;67.30
3055;DHT22;1537;52.018;8.542;2023-03-01T20:46:50;2.30;67.20
3055;DHT22;1537;52.018;8.542;2023-03-01T20:50:15;2.20;68.00
3055;DHT22;1537;52.018;8.542;2023-03-01T20:53:40;2.10;68.40
3055;DHT22;1537;52.018;8.542;2023-03-01T20:57:03;2.10;68.70
3055;DHT22;1537;52.018;8.542;2023-03-01T21:00:27;2.10;68.90
3055;DHT22;1537;52.018;8.542;2023-03-01T21:03:53;2.00;69.00
3055;DHT22;1537;52.018;8.542;2023-03-01T21:07:18;2.00;69.40
3055;DHT22;1537;52.018;8.542;2023-03-01T21:10:42;1.90;69.70
3055;DHT22;1537;52.018;8.542;2023-03-01T21:14:11;1.90;70.00
3055;DHT22;1537;52.018;8.542;2023-03-01T21:17:37;1.80;70.10
3055;DHT22;1537;52.018;8.542;2023-03-01T21:21:03;1.80;70.00
3055;DHT22;1537;52.018;8.542;2023-03-01T21:24:29;1.70;70.30
3055;DHT22;1537;52.018;8.542;2023-03-01T21:27:53;1.70;70.70
3055;DHT22;1537;52.018;8.542;2023-03-01T21:31:18;1.70;70.80
3055;DHT22;1537;52.018;8.542;2023-03-01T21:34:44;1.60;70.80
3055;DHT22;1537;52.018;8.542;2023-03-01T21:38:07;1.60;71.20
3055;DHT22;1537;52.018;8.542;2023-03-01T21:41:36;1.60;71.60
3055;DHT22;1537;52.018;8.542;2023-03-01T21:45:01;1.60;71.80
3055;DHT22;1537;52.018;8.542;2023-03-01T21:48:25;1.60;72.20
3055;DHT22;1537;52.018;8.542;2023-03-01T21:51:49;1.50;72.50
3055;DHT22;1537;52.018;8.542;2023-03-01T21:55:12;1.50;72.80
3055;DHT22;1537;52.018;8.542;2023-03-01T21:58:38;1.40;72.90
3055;DHT22;1537;52.018;8.542;2023-03-01T22:02:02;1.40;73.10
3055;DHT22;1537;52.018;8.542;2023-03-01T22:05:27;1.40;73.30
3055;DHT22;1537;52.018;8.542;2023-03-01T22:08:52;1.30;73.40
3055;DHT22;1537;52.018;8.542;2023-03-01T22:12:17;1.30;74.40
3055;DHT22;1537;52.018;8.542;2023-03-01T22:15:42;1.30;74.00
3055;DHT22;1537;52.018;8.542;2023-03-01T22:19:06;1.20;74.30
3055;DHT22;1537;52.018;8.542;2023-03-01T22:22:30;1.20;74.60
3055;DHT22;1537;52.018;8.542;2023-03-01T22:25:54;1.20;74.90
3055;DHT22;1537;52.018;8.542;2023-03-01T22:29:21;1.20;75.30
3055;DHT22;1537;52.018;8.542;2023-03-01T22:32:46;1.10;75.30
3055;DHT22;1537;52.018;8.542;2023-03-01T22:36:10;1.10;75.70
3055;DHT22;1537;52.018;8.542;2023-03-01T22:39:35;1.00;76.00
3055;DHT22;1537;52.018;8.542;2023-03-01T22:42:58;1.00;76.20
3055;DHT22;1537;52.018;8.542;2023-03-01T22:46:22;1.00;76.20
3055;DHT22;1537;52.018;8.542;2023-03-01T22:49:47;1.00;76.00
3055;DHT22;1537;52.018;8.542;2023-03-01T22:53:11;1.00;75.80